Norris Rancho Marino Reserve, California Weather observations

Data are for 10 minute period ending at time listed.
 Day   Time   Solar   Ave.   Ave.  Ave.  Vector  Max.   Baro.   Total    
  of    of     Rad.   Air    Rel.  Wind   Wind   Wind  Press.  Precip.   
Year   Day            Temp.  Hum.  Speed  Dir.   Gust                    
2016   (PST)  Kw/m2    F      %     mph   deg.    mph    mb.     in.     
-------------------------------------------------------------------------
 340    4:00   0.00   49.7    94    3.3    22     4.4   1013.4    0.00 
 340    4:10   0.00   49.6    94    3.3    29     4.3   1013.4    0.00 
 340    4:20   0.00   49.2    94    3.7    48     4.3   1013.4    0.00 
 340    4:30   0.00   49.2    94    3.2    46     4.2   1013.4    0.00 
 340    4:40   0.00   49.0    94    3.3    46     4.5   1013.3    0.00 
 340    4:50   0.00   49.2    94    3.4    39     4.7   1013.3    0.00 
 340    5:00   0.00   49.0    94    3.1    24     4.0   1013.4    0.00 
 340    5:10   0.00   48.7    94    3.4    42     5.1   1013.3    0.00 
 340    5:20   0.00   49.1    94    2.0    62     3.9   1013.2    0.00 
 340    5:30   0.00   48.9    95    2.3    59     3.4   1013.3    0.00 
 340    5:40   0.00   49.0    95    2.0    80     3.1   1013.4    0.00 
 340    5:50   0.00   49.6    95    2.4    96     3.6   1013.3    0.00 
 340    6:00   0.00   49.5    95    2.1    97     3.0   1013.4    0.00 
 340    6:10   0.00   49.6    95    2.2    85     3.1   1013.4    0.00 
 340    6:20   0.00   49.8    95    2.1    85     3.1   1013.5    0.00 
 340    6:30   0.00   49.5    95    2.0    79     2.9   1013.6    0.00 
 340    6:40   0.00   49.9    95    2.4    77     3.4   1013.7    0.00 
 340    6:50   0.00   49.6    95    2.5    71     3.8   1013.8    0.00 
 340    7:00   0.01   49.7    95    3.0    81     3.9   1013.7    0.00 
 340    7:10   0.01   49.6    95    3.2    87     4.2   1013.6    0.00 
 340    7:20   0.01   49.6    95    3.2    86     4.2   1013.6    0.00 
 340    7:30   0.03   49.7    95    3.3    81     4.5   1013.7    0.00 
 340    7:40   0.04   49.7    95    1.9    54     3.3   1013.9    0.00 
 340    7:50   0.06   49.9    95    2.8    87     4.2   1013.8    0.00 
 340    8:00   0.08   50.5    95    3.9    91     5.1   1013.9    0.00 
 340    8:10   0.09   51.0    95    2.3    90     5.5   1014.1    0.00 
 340    8:20   0.10   51.3    95    0.6    57     1.9   1014.1    0.00 
 340    8:30   0.15   52.0    95    0.6    83     1.8   1014.4    0.00 
 340    8:40   0.14   52.5    95    0.1   127     1.6   1014.5    0.00 
 340    8:50   0.19   52.9    95    0.3    51     1.2   1014.5    0.00 
 340    9:00   0.27   55.1    95    0.6   160     3.0   1014.9    0.00 
 340    9:10   0.29   54.6    94    3.1   158     4.5   1015.3    0.00 
 340    9:20   0.29   54.8    93    3.5   155     4.6   1015.4    0.00 
 340    9:30   0.33   55.3    91    3.5   158     4.3   1015.4    0.00 
 340    9:40   0.24   55.4    90    3.2   148     4.6   1015.4    0.00 
 340    9:50   0.28   55.2    89    3.6   158     4.3   1015.5    0.00 
 340   10:00   0.34   55.7    88    4.0   154     5.0   1015.4    0.00 
 340   10:10   0.32   56.0    87    4.1   163     5.7   1015.5    0.00 
 340   10:20   0.39   56.5    86    4.2   168     5.6   1015.7    0.00 
 340   10:30   0.42   56.7    86    4.4   175     5.8   1015.7    0.00 
 340   10:40   0.42   56.8    85    3.9   195     5.6   1015.6    0.00 
 340   10:50   0.48   55.9    86    3.7   232     4.7   1015.4    0.00 
 340   11:00   0.50   56.8    86    2.6   220     3.9   1015.3    0.00 
 340   11:10   0.50   56.9    86    2.4   208     3.3   1015.0    0.00 
 340   11:20   0.51   57.3    85    1.9   196     2.9   1014.6    0.00 
 340   11:30   0.52   57.4    85    2.3   206     3.5   1014.4    0.00 
 340   11:40   0.52   57.4    85    2.1   190     3.4   1014.1    0.00 
 340   11:50   0.53   57.5    85    2.3   196     3.2   1013.8    0.00 
 340   12:00   0.53   57.7    85    2.4   195     3.7   1013.7    0.00 
 340   12:10   0.53   57.6    85    2.7   214     4.5   1013.7    0.00 
 340   12:20   0.50   56.9    85    3.1   245     5.0   1013.7    0.00 
 340   12:30   0.53   57.0    85    5.0   269     6.6   1013.7    0.00 
 340   12:40   0.52   57.1    85    5.7   277     7.3   1013.8    0.00 
 340   12:50   0.52   57.2    84    5.5   278     7.6   1013.7    0.00 
 340   13:00   0.51   57.5    84    7.3   285    11.0   1013.5    0.00 
 340   13:10   0.50   57.5    84    9.8   291    12.1   1013.5    0.00 
 340   13:20   0.49   57.3    85   10.5   291    12.4   1013.4    0.00 
 340   13:30   0.48   56.9    84   10.8   291    12.5   1013.2    0.00 
 340   13:40   0.46   57.4    84   10.8   291    13.5   1013.2    0.00 
 340   13:50   0.45   57.1    83   10.8   291    13.3   1013.0    0.00 
 340   14:00   0.43   57.0    83   10.3   290    11.8   1012.8    0.00 
 340   14:10   0.42   57.2    83   10.5   289    12.6   1012.9    0.00 
 340   14:20   0.40   57.1    82   10.9   291    12.6   1013.0    0.00 
 340   14:30   0.37   57.3    84   10.7   291    13.2   1013.1    0.00 
 340   14:40   0.34   57.0    84   11.9   292    14.8   1013.2    0.00 
 340   14:50   0.32   56.7    84   13.6   293    16.1   1013.2    0.00 
 340   15:00   0.29   56.9    84   11.8   296    15.4   1013.3    0.00 
 340   15:10   0.25   57.0    83   10.9   301    14.7   1013.3    0.00 
 340   15:20   0.25   57.3    83    9.7   302    15.2   1013.2    0.00 
 340   15:30   0.22   57.3    83    9.2   298    13.2   1012.9    0.00 
 340   15:40   0.20   56.9    84   11.6   295    14.2   1013.1    0.00 
 340   15:50   0.16   56.8    84   10.3   299    15.0   1013.2    0.00 
 340   16:00   0.14   56.3    85   12.5   296    15.3   1013.2    0.00 
 340   16:10   0.12   56.0    86   12.2   296    16.7   1013.3    0.00 
 340   16:20   0.09   55.6    86   11.3   300    15.7   1013.4    0.00 
 340   16:30   0.07   55.1    87    9.4   306    13.4   1013.0    0.00 
 340   16:40   0.04   54.6    88   10.0   309    12.9   1012.9    0.00 
 340   16:50   0.02   54.3    88    7.7   314    10.5   1012.6    0.00 
 340   17:00   0.01   53.8    88    7.4   316    10.2   1012.4    0.00 
 340   17:10   0.01   53.9    89    5.6   323     8.4   1012.2    0.00 
 340   17:20   0.00   53.6    89    5.3   323     8.3   1012.1    0.00 
 340   17:30   0.00   53.4    89    6.7   322    10.4   1012.1    0.00 
 340   17:40   0.00   53.2    89    5.9   329     8.8   1012.0    0.00 
 340   17:50   0.00   53.0    90    3.6   348     7.1   1011.7    0.00 
 340   18:00   0.00   52.7    90    3.7     2     5.4   1011.6    0.00 
 340   18:10   0.00   52.1    90    2.1    16     3.4   1011.8    0.00 
 340   18:20   0.00   51.3    90    2.5    12     3.3   1011.7    0.00 
 340   18:30   0.00   50.6    91    3.0    44     4.3   1011.6    0.00 
 340   18:40   0.00   49.9    91    2.7    31     4.0   1011.8    0.00 
 340   18:50   0.00   50.6    92    1.5    76     3.1   1011.8    0.00 
 340   19:00   0.00   50.8    92    1.9    82     3.1   1012.0    0.00 
 340   19:10   0.00   51.2    92    2.5    99     3.7   1011.7    0.00 
 340   19:20   0.00   51.5    92    2.4   101     3.3   1011.8    0.00 
 340   19:30   0.00   51.7    92    2.6   102     3.9   1012.0    0.00 
 340   19:40   0.00   51.8    92    1.7    89     4.0   1012.1    0.00 
 340   19:50   0.00   51.4    92    1.8    75     2.7   1012.2    0.00 
 340   20:00   0.00   51.2    92    2.3   102     3.3   1012.2    0.00 
 340   20:10   0.00   50.7    92    2.1    64     3.6   1012.3    0.00 
 340   20:20   0.00   50.1    92    2.2    59     3.5   1012.3    0.00 
 340   20:30   0.00   50.2    92    2.6    46     3.9   1012.2    0.00 
 340   20:40   0.00   50.1    92    2.4    49     3.7   1012.4    0.00 
 340   20:50   0.00   50.0    93    2.5    45     3.4   1012.6    0.00 
 340   21:00   0.00   49.9    93    2.4    50     3.7   1012.5    0.00 
 340   21:10   0.00   49.8    93    2.6    52     3.7   1012.5    0.00 
 340   21:20   0.00   49.4    93    2.0    86     3.2   1012.4    0.00 
 340   21:30   0.00   49.7    94    2.6    94     3.6   1012.4    0.00 
 340   21:40   0.00   49.9    94    2.9    96     4.0   1012.5    0.00 
 340   21:50   0.00   49.9    94    3.0    97     4.2   1012.4    0.00 
 340   22:00   0.00   49.9    93    3.1    65     3.9   1012.5    0.00 
 340   22:10   0.00   49.3    94    2.5    49     3.7   1012.5    0.00 
 340   22:20   0.00   49.4    94    2.7    33     3.7   1012.5    0.00 
 340   22:30   0.00   49.0    94    3.0    36     3.7   1012.6    0.00 
 340   22:40   0.00   48.7    94    4.0    40     5.2   1012.8    0.00 
 340   22:50   0.00   48.4    94    3.7    22     5.2   1012.9    0.00 
 340   23:00   0.00   49.2    94    3.3    16     4.2   1012.8    0.00 
 340   23:10   0.00   49.4    94    4.3    27     5.4   1012.8    0.00 
 340   23:20   0.00   49.6    94    4.6    22     5.4   1012.8    0.00 
 340   23:30   0.00   49.5    95    3.8    13     4.8   1012.9    0.00 
 340   23:40   0.00   48.7    95    4.2    35     5.3   1012.8    0.00 
 340   23:50   0.00   49.9    95    2.6   345     4.2   1013.0    0.00 
 341    0:00   0.00   49.7    95    1.5   335     3.4   1013.0    0.00 
 341    0:10   0.00   49.8    95    2.1   343     3.0   1013.0    0.00 
 341    0:20   0.00   49.9    95    2.0   344     2.9   1013.1    0.00 
 341    0:30   0.00   50.5    95    3.0   343     5.3   1013.0    0.00 
 341    0:40   0.00   50.2    95    3.4   357     4.7   1012.9    0.00 
 341    0:50   0.00   50.1    95    3.8     8     5.0   1012.8    0.00 
 341    1:00   0.00   49.4    95    2.7    13     3.7   1012.8    0.00 
 341    1:10   0.00   48.9    95    3.1    11     4.5   1012.7    0.00 
 341    1:20   0.00   49.1    95    3.4     4     5.4   1012.6    0.00 
 341    1:30   0.00   49.3    95    4.1   354     5.7   1012.8    0.00 
 341    1:40   0.00   49.7    95    4.3     2     6.3   1012.7    0.00 
 341    1:50   0.00   49.3    95    3.7   360     5.7   1012.7    0.00 
 341    2:00   0.00   49.3    95    3.7    14     5.6   1012.8    0.00 
 341    2:10   0.00   49.2    95    3.5    18     4.7   1012.7    0.00 
 341    2:20   0.00   48.9    95    3.8    24     4.7   1012.5    0.00 
 341    2:30   0.00   48.4    95    4.6    37     5.4   1012.4    0.00 
 341    2:40   0.00   48.0    95    4.7    47     6.0   1012.4    0.00 
 341    2:50   0.00   48.2    95    4.1    52     7.7   1012.4    0.00 
 341    3:00   0.00   46.6    95    2.8    64     4.1   1012.4    0.00 
 341    3:10   0.00   46.7    95    2.3    70     3.4   1012.4    0.00 
 341    3:20   0.00   47.2    95    2.4    69     3.9   1012.3    0.00 
 341    3:30   0.00   47.3    95    2.7    84     3.7   1012.3    0.00 
 341    3:40   0.00   47.4    95    3.6    93     5.6   1012.3    0.00 
 341    3:50   0.00   48.0    95    3.6    88     4.8   1012.2    0.00 

Return to Norris Rancho Marino Reserve graphs page.


Western Regional Climate Center,wrcc@dri.edu